Time;durP1;ratioP1;P1;durP2;ratioP2;P2;SDS_P1;SDS_P2;PMS_P1;PMS_P2;Temp;Humidity;BMP_temperature;BMP_pressure;BME280_temperature;BME280_humidity;BME280_pressure;Samples;Min_cycle;Max_cycle;Signal;HPM_P1;HPM_P2
2022/10/13 00:02:00;;;;;;;12.63;5.82;;;15.30;99.90;;;;;;5118952;27;20076;-84
2022/10/13 00:04:26;;;;;;;12.27;5.38;;;15.20;99.90;;;;;;5107821;28;20062;-84
2022/10/13 00:06:52;;;;;;;12.25;5.13;;;15.20;99.90;;;;;;5109625;28;20047;-84
2022/10/13 00:09:18;;;;;;;11.68;5.05;;;15.10;99.90;;;;;;5100375;28;20079;-84
2022/10/13 00:11:44;;;;;;;9.00;4.90;;;15.00;99.90;;;;;;5116505;28;20043;-83
2022/10/13 00:14:09;;;;;;;14.73;5.18;;;14.90;99.90;;;;;;5116443;28;20051;-83
2022/10/13 00:16:35;;;;;;;13.75;5.22;;;14.90;99.90;;;;;;5116615;28;20020;-82
2022/10/13 00:19:01;;;;;;;9.82;5.40;;;14.80;99.90;;;;;;5099333;28;20032;-83
2022/10/13 00:21:27;;;;;;;13.77;5.38;;;14.70;99.90;;;;;;5090422;28;20016;-84
2022/10/13 00:23:54;;;;;;;16.45;5.13;;;14.70;99.90;;;;;;5098501;28;20032;-83
2022/10/13 00:26:22;;;;;;;11.70;6.53;;;14.70;99.90;;;;;;5115337;28;20019;-83
2022/10/13 00:28:49;;;;;;;10.13;5.20;;;14.70;99.90;;;;;;5105505;28;20168;-84
2022/10/13 00:31:29;;;;;;;12.57;5.47;;;14.70;99.90;;;;;;5096551;28;20488;-84
2022/10/13 00:33:57;;;;;;;12.88;5.88;;;14.70;99.90;;;;;;5094097;28;20104;-84
2022/10/13 00:36:24;;;;;;;15.65;5.97;;;14.70;99.90;;;;;;5115696;28;20509;-84
2022/10/13 00:38:53;;;;;;;11.45;6.10;;;14.70;99.90;;;;;;5106924;28;20024;-84
2022/10/13 00:41:20;;;;;;;18.50;6.95;;;14.60;99.90;;;;;;5113578;28;20576;-84
2022/10/13 00:43:56;;;;;;;12.73;5.85;;;14.60;99.90;;;;;;5098618;28;20468;-83
2022/10/13 00:46:24;;;;;;;13.23;5.57;;;14.70;99.90;;;;;;5097557;28;20036;-83
2022/10/13 00:48:51;;;;;;;9.57;6.10;;;14.70;99.90;;;;;;5113781;28;20081;-83
2022/10/13 00:51:21;;;;;;;13.98;6.28;;;14.60;99.90;;;;;;5107184;28;20020;-83
2022/10/13 00:53:48;;;;;;;13.88;6.70;;;14.60;99.90;;;;;;5097111;28;20545;-83
2022/10/13 00:56:17;;;;;;;8.98;5.63;;;14.60;99.90;;;;;;5096902;28;20419;-82
2022/10/13 00:58:44;;;;;;;11.50;6.55;;;14.70;99.90;;;;;;5097078;28;20452;-83
2022/10/13 01:01:10;;;;;;;14.70;6.18;;;14.60;99.90;;;;;;5118332;28;20085;-84
2022/10/13 01:03:37;;;;;;;16.20;6.05;;;14.60;99.90;;;;;;5103384;28;20431;-83
2022/10/13 01:06:04;;;;;;;12.55;5.72;;;14.60;99.90;;;;;;5118493;28;20020;-83
2022/10/13 01:08:32;;;;;;;13.90;5.53;;;14.60;99.90;;;;;;5116581;28;20054;-83
2022/10/13 01:11:13;;;;;;;11.25;5.68;;;14.60;99.90;;;;;;5102716;28;20128;-83
2022/10/13 01:13:57;;;;;;;;;;;14.50;99.90;;;;;;5103958;28;20076;-83
2022/10/13 01:16:38;;;;;;;11.50;5.95;;;14.50;99.90;;;;;;5104033;28;20329;-84
2022/10/13 01:19:35;;;;;;;13.60;6.47;;;14.60;99.90;;;;;;5104082;28;20024;-82
2022/10/13 01:22:19;;;;;;;10.15;6.13;;;14.50;99.90;;;;;;5122766;27;20020;-84
2022/10/13 01:25:22;;;;;;;16.27;6.40;;;14.50;99.90;;;;;;5113881;28;20029;-84
2022/10/13 01:28:21;;;;;;;9.63;5.88;;;14.50;99.90;;;;;;5101478;28;20027;-83
2022/10/13 01:31:12;;;;;;;14.10;5.80;;;14.50;99.90;;;;;;5111875;28;20169;-85
2022/10/13 01:33:49;;;;;;;14.57;6.70;;;14.50;99.90;;;;;;5100846;28;20020;-83
2022/10/13 01:36:28;;;;;;;12.68;6.13;;;14.60;99.90;;;;;;5101551;28;20058;-84
2022/10/13 01:39:04;;;;;;;14.45;6.13;;;14.60;99.90;;;;;;5102595;28;20048;-84
2022/10/13 01:41:43;;;;;;;16.30;5.63;;;14.60;99.90;;;;;;5099667;28;20020;-84
2022/10/13 01:44:35;;;;;;;12.05;5.88;;;14.60;99.90;;;;;;5101955;28;20157;-84
2022/10/13 01:47:03;;;;;;;10.48;5.45;;;14.60;99.90;;;;;;5091178;28;20016;-84
2022/10/13 01:49:33;;;;;;;15.13;6.47;;;14.50;99.90;;;;;;5119357;28;20111;-83
2022/10/13 01:52:07;;;;;;;14.02;6.15;;;14.40;99.90;;;;;;5113580;28;20036;-84
2022/10/13 01:54:33;;;;;;;23.38;7.00;;;14.30;99.90;;;;;;5102757;28;20046;-84
2022/10/13 01:56:59;;;;;;;10.07;5.65;;;14.30;99.90;;;;;;5102334;28;20052;-84
2022/10/13 01:59:28;;;;;;;14.38;5.85;;;14.20;99.90;;;;;;5102128;28;20474;-84
2022/10/13 02:02:20;;;;;;;9.52;6.10;;;14.10;99.90;;;;;;5117512;28;20016;-84
2022/10/13 02:04:56;;;;;;;10.35;5.65;;;14.10;99.90;;;;;;5117694;28;20028;-84
2022/10/13 02:07:42;;;;;;;12.73;6.18;;;14.00;99.90;;;;;;5101789;28;20027;-84
2022/10/13 02:10:33;;;;;;;17.42;5.53;;;13.90;99.90;;;;;;5101888;28;20040;-83
2022/10/13 02:13:03;;;;;;;15.55;7.75;;;13.90;99.90;;;;;;5094075;28;20020;-83
2022/10/13 02:15:52;;;;;;;11.70;7.10;;;13.90;99.90;;;;;;5100803;28;20008;-82
2022/10/13 02:18:22;;;;;;;14.55;6.25;;;13.80;99.90;;;;;;5116869;28;20024;-83
2022/10/13 02:20:50;;;;;;;19.87;6.17;;;13.80;99.90;;;;;;5100201;28;20020;-83
2022/10/13 02:23:17;;;;;;;20.52;7.25;;;13.80;99.90;;;;;;5101309;28;20062;-84
2022/10/13 02:25:44;;;;;;;32.85;7.82;;;13.70;99.90;;;;;;5101320;28;20023;-83
2022/10/13 02:28:13;;;;;;;13.15;6.82;;;13.70;99.90;;;;;;5101912;28;20460;-82
2022/10/13 02:30:40;;;;;;;16.83;7.70;;;13.80;99.90;;;;;;5082707;28;20021;-83
2022/10/13 02:33:07;;;;;;;17.25;5.95;;;13.80;99.90;;;;;;5082920;28;20025;-83
2022/10/13 02:35:33;;;;;;;12.23;7.13;;;13.70;99.90;;;;;;5095711;28;20099;-84
2022/10/13 02:38:00;;;;;;;13.57;7.50;;;13.70;99.90;;;;;;5099804;28;20016;-83
2022/10/13 02:40:26;;;;;;;15.77;7.10;;;13.80;99.90;;;;;;5099368;28;20028;-83
2022/10/13 02:42:52;;;;;;;16.15;7.38;;;13.80;99.90;;;;;;5102298;28;20027;-84
2022/10/13 02:45:18;;;;;;;14.32;5.88;;;13.80;99.90;;;;;;5121491;27;20024;-83
2022/10/13 02:47:44;;;;;;;20.88;8.18;;;13.80;99.90;;;;;;5107024;28;20074;-83
2022/10/13 02:50:10;;;;;;;13.02;6.50;;;13.80;99.90;;;;;;5114675;28;20024;-83
2022/10/13 02:52:36;;;;;;;17.08;7.35;;;13.90;99.90;;;;;;5122241;27;20094;-83
2022/10/13 02:55:03;;;;;;;12.55;6.97;;;13.90;99.90;;;;;;5100503;28;20028;-84
2022/10/13 02:57:29;;;;;;;17.00;7.28;;;14.00;99.90;;;;;;5099154;28;20067;-83
2022/10/13 02:59:55;;;;;;;13.90;6.72;;;14.00;99.90;;;;;;5100280;28;20028;-83
2022/10/13 03:02:21;;;;;;;12.90;7.13;;;13.90;99.90;;;;;;5099430;28;20111;-83
2022/10/13 03:04:48;;;;;;;11.65;6.63;;;13.90;99.90;;;;;;5114972;28;20114;-84
2022/10/13 03:07:14;;;;;;;12.73;6.53;;;13.80;99.90;;;;;;5127060;27;20487;-83
2022/10/13 03:09:40;;;;;;;12.52;6.88;;;13.80;99.90;;;;;;5099434;28;20031;-83
2022/10/13 03:12:06;;;;;;;19.63;7.57;;;13.80;99.90;;;;;;5116631;28;20032;-83
2022/10/13 03:14:32;;;;;;;15.70;6.78;;;13.70;99.90;;;;;;5116113;28;20073;-84
2022/10/13 03:16:58;;;;;;;12.65;7.15;;;13.70;99.90;;;;;;5100736;28;20020;-84
2022/10/13 03:19:24;;;;;;;16.08;7.28;;;13.60;99.90;;;;;;5123770;27;20052;-83
2022/10/13 03:21:49;;;;;;;12.63;7.95;;;13.60;99.90;;;;;;5099336;28;20012;-83
2022/10/13 03:24:15;;;;;;;16.63;8.80;;;13.60;99.90;;;;;;5101480;28;20032;-83
2022/10/13 03:26:41;;;;;;;16.45;7.18;;;13.50;99.90;;;;;;5100441;28;20012;-83
2022/10/13 03:29:10;;;;;;;14.60;7.35;;;13.50;99.90;;;;;;5100834;28;20049;-83
2022/10/13 03:31:35;;;;;;;12.23;6.57;;;13.50;99.90;;;;;;5101203;28;20035;-83
2022/10/13 03:34:01;;;;;;;16.85;7.93;;;13.40;99.90;;;;;;5100777;28;20028;-84
2022/10/13 03:36:27;;;;;;;12.00;7.07;;;13.40;99.90;;;;;;5098122;28;20024;-83
2022/10/13 03:38:53;;;;;;;15.35;6.63;;;13.40;99.90;;;;;;5098444;28;20048;-83
2022/10/13 03:41:19;;;;;;;13.27;7.20;;;13.40;99.90;;;;;;5098180;28;20099;-82
2022/10/13 03:43:45;;;;;;;12.75;7.28;;;13.40;99.90;;;;;;5113383;28;20480;-83
2022/10/13 03:46:16;;;;;;;16.05;7.03;;;13.30;99.90;;;;;;5113765;28;20426;-83
2022/10/13 03:48:42;;;;;;;14.02;7.63;;;13.30;99.90;;;;;;5116931;28;20110;-82
2022/10/13 03:51:10;;;;;;;11.93;6.93;;;13.30;99.90;;;;;;5101423;28;20027;-83
2022/10/13 03:53:36;;;;;;;16.00;7.80;;;13.30;99.90;;;;;;5102259;28;20032;-83
2022/10/13 03:56:04;;;;;;;14.60;7.53;;;13.30;99.90;;;;;;5113743;28;20043;-82
2022/10/13 03:58:30;;;;;;;13.02;7.47;;;13.30;99.90;;;;;;5097843;28;20114;-82
2022/10/13 04:00:56;;;;;;;14.50;7.53;;;13.30;99.90;;;;;;5097429;28;20020;-82
2022/10/13 04:03:23;;;;;;;11.50;7.18;;;13.30;99.90;;;;;;5099867;28;20050;-82
2022/10/13 04:05:49;;;;;;;16.98;7.20;;;13.30;99.90;;;;;;5104448;28;20089;-82
2022/10/13 04:08:15;;;;;;;15.32;8.57;;;13.30;99.90;;;;;;5098628;28;20484;-82
2022/10/13 04:10:41;;;;;;;14.60;8.32;;;13.30;99.90;;;;;;5097395;28;20040;-83
2022/10/13 04:13:07;;;;;;;16.48;7.88;;;13.30;99.90;;;;;;5103412;28;20039;-83
2022/10/13 04:15:40;;;;;;;13.30;7.38;;;13.30;99.90;;;;;;5114237;28;20012;-83
2022/10/13 04:18:07;;;;;;;16.20;7.85;;;13.30;99.90;;;;;;5100155;28;20036;-83
2022/10/13 04:20:37;;;;;;;16.88;7.57;;;13.30;99.90;;;;;;5113076;28;20166;-82
2022/10/13 04:23:04;;;;;;;10.07;7.75;;;13.30;99.90;;;;;;5117343;28;20031;-83
2022/10/13 04:25:29;;;;;;;18.13;8.05;;;13.30;99.90;;;;;;5124644;27;20504;-83
2022/10/13 04:27:55;;;;;;;18.05;7.82;;;13.30;99.90;;;;;;5114854;28;20054;-83
2022/10/13 04:30:21;;;;;;;15.63;8.07;;;13.30;99.90;;;;;;5098782;28;20023;-83
2022/10/13 04:32:47;;;;;;;12.43;8.25;;;13.30;99.90;;;;;;5098933;28;20450;-84
2022/10/13 04:35:13;;;;;;;9.93;7.97;;;13.30;99.90;;;;;;5098462;28;20020;-83
2022/10/13 04:37:38;;;;;;;28.70;8.65;;;13.30;99.90;;;;;;5114496;28;20016;-83
2022/10/13 04:40:05;;;;;;;11.60;7.78;;;13.30;99.90;;;;;;5098866;28;20028;-82
2022/10/13 04:42:30;;;;;;;16.50;7.90;;;13.30;99.90;;;;;;5122665;28;20016;-83
2022/10/13 04:44:56;;;;;;;14.75;8.43;;;13.30;99.90;;;;;;5098126;28;20357;-83
2022/10/13 04:47:22;;;;;;;14.05;8.07;;;13.40;99.90;;;;;;5091299;28;20028;-83
2022/10/13 04:49:48;;;;;;;18.20;8.60;;;13.40;99.90;;;;;;5098291;28;20074;-84
2022/10/13 04:52:14;;;;;;;17.92;9.07;;;13.40;99.90;;;;;;5098731;28;20495;-83
2022/10/13 04:54:41;;;;;;;9.95;7.43;;;13.30;99.90;;;;;;5100343;28;20016;-84
2022/10/13 04:57:07;;;;;;;16.05;7.40;;;13.30;99.90;;;;;;5097511;28;20111;-83
2022/10/13 04:59:32;;;;;;;13.52;8.10;;;13.30;99.90;;;;;;5113898;28;20054;-83
2022/10/13 05:01:58;;;;;;;12.57;8.18;;;13.30;99.90;;;;;;5114553;28;20021;-83
2022/10/13 05:04:24;;;;;;;12.20;7.28;;;13.30;99.90;;;;;;5097614;28;20380;-83
2022/10/13 05:06:50;;;;;;;11.68;8.57;;;13.30;99.90;;;;;;5112867;28;20028;-84
2022/10/13 05:09:16;;;;;;;12.48;8.50;;;13.30;99.90;;;;;;5116356;28;20087;-83
2022/10/13 05:11:42;;;;;;;14.15;8.63;;;13.30;99.90;;;;;;5103326;28;20039;-83
2022/10/13 05:14:07;;;;;;;19.27;8.73;;;13.40;99.90;;;;;;5105711;28;20025;-84
2022/10/13 05:16:33;;;;;;;18.80;8.80;;;13.40;99.90;;;;;;5098044;28;20029;-83
2022/10/13 05:18:59;;;;;;;18.23;9.75;;;13.30;99.90;;;;;;5098965;28;20040;-83
2022/10/13 05:21:27;;;;;;;13.43;8.35;;;13.30;99.90;;;;;;5104980;28;20515;-83
2022/10/13 05:23:55;;;;;;;19.75;9.40;;;13.30;99.90;;;;;;5114487;28;20024;-84
2022/10/13 05:26:27;;;;;;;16.85;8.77;;;13.30;99.90;;;;;;5114501;28;20465;-83
2022/10/13 05:29:00;;;;;;;19.83;9.32;;;13.30;99.90;;;;;;5113587;28;20023;-83
2022/10/13 05:31:27;;;;;;;16.48;8.57;;;13.40;99.90;;;;;;5097940;28;20020;-84
2022/10/13 05:33:54;;;;;;;20.23;10.05;;;13.40;99.90;;;;;;5097835;28;20031;-83
2022/10/13 05:36:29;;;;;;;14.57;8.60;;;13.40;99.90;;;;;;5097585;28;20028;-84
2022/10/13 05:38:57;;;;;;;14.32;10.30;;;13.50;99.90;;;;;;5092873;28;20520;-83
2022/10/13 05:41:25;;;;;;;23.25;10.23;;;13.50;99.90;;;;;;5107390;28;20027;-82
2022/10/13 05:43:56;;;;;;;10.23;7.70;;;13.50;99.90;;;;;;5116340;28;20368;-83
2022/10/13 05:46:22;;;;;;;;;;;13.50;99.90;;;;;;5103524;28;20028;-83
2022/10/13 05:48:47;;;;;;;17.13;7.90;;;13.50;99.90;;;;;;5108734;28;19914;-81
2022/10/13 05:51:16;;;;;;;21.38;8.90;;;13.50;99.90;;;;;;5103968;28;20103;-81
2022/10/13 05:53:49;;;;;;;16.13;8.23;;;13.50;99.90;;;;;;5100668;28;20089;-82
2022/10/13 05:56:19;;;;;;;13.07;8.95;;;13.50;99.90;;;;;;5102322;28;20031;-80
2022/10/13 05:58:50;;;;;;;21.77;9.05;;;13.40;99.90;;;;;;5109402;28;20035;-81
2022/10/13 06:01:20;;;;;;;12.07;9.20;;;13.50;99.90;;;;;;5101976;28;20028;-81
2022/10/13 06:03:48;;;;;;;;;;;13.40;99.90;;;;;;5102438;28;20032;-82
2022/10/13 06:06:14;;;;;;;23.33;10.52;;;13.40;99.90;;;;;;5115783;28;19904;-81
2022/10/13 06:08:41;;;;;;;15.23;9.10;;;13.40;99.90;;;;;;5100140;28;20035;-81
2022/10/13 06:11:08;;;;;;;15.63;9.68;;;13.40;99.90;;;;;;5099832;28;20051;-81
2022/10/13 06:13:34;;;;;;;17.98;7.68;;;13.40;99.90;;;;;;5099924;28;20021;-81
2022/10/13 06:16:00;;;;;;;22.23;9.25;;;13.40;99.90;;;;;;5119406;27;20028;-81
2022/10/13 06:18:26;;;;;;;20.50;9.60;;;13.40;99.90;;;;;;5104203;28;20115;-82
2022/10/13 06:20:52;;;;;;;14.88;8.57;;;13.40;99.90;;;;;;5099584;28;20434;-81
2022/10/13 06:23:18;;;;;;;14.35;9.10;;;13.40;99.90;;;;;;5126367;27;20076;-82
2022/10/13 06:25:48;;;;;;;12.02;8.48;;;13.40;99.90;;;;;;5116484;28;20024;-82
2022/10/13 06:28:15;;;;;;;16.10;8.70;;;13.40;99.90;;;;;;5117505;28;20018;-82
2022/10/13 06:30:45;;;;;;;15.90;7.97;;;13.40;99.90;;;;;;5110138;28;20050;-82
2022/10/13 06:33:11;;;;;;;15.25;8.88;;;13.40;99.90;;;;;;5116431;28;20092;-82
2022/10/13 06:35:37;;;;;;;10.88;7.97;;;13.40;99.90;;;;;;5115195;28;20446;-83
2022/10/13 06:38:03;;;;;;;12.18;7.10;;;13.40;99.90;;;;;;5111163;28;20545;-83
2022/10/13 06:40:29;;;;;;;11.15;7.10;;;13.40;99.90;;;;;;5134794;27;20066;-83
2022/10/13 06:42:55;;;;;;;14.20;7.97;;;13.50;99.90;;;;;;5113574;28;20028;-82
2022/10/13 06:45:21;;;;;;;13.70;8.18;;;13.50;99.90;;;;;;5115957;28;20070;-83
2022/10/13 06:47:46;;;;;;;12.63;7.93;;;13.50;99.90;;;;;;5115512;28;20034;-82
2022/10/13 06:50:12;;;;;;;17.80;8.48;;;13.60;99.90;;;;;;5132374;27;20039;-82
2022/10/13 06:52:38;;;;;;;13.15;7.93;;;13.60;99.90;;;;;;5106165;28;20445;-82
2022/10/13 06:55:05;;;;;;;16.30;8.25;;;13.60;99.90;;;;;;5114935;28;20024;-82
2022/10/13 06:57:30;;;;;;;11.68;7.93;;;13.70;99.90;;;;;;5113624;27;20136;-81
2022/10/13 06:59:56;;;;;;;11.82;8.25;;;13.70;99.90;;;;;;5097326;28;20103;-81
2022/10/13 07:02:22;;;;;;;13.02;9.20;;;13.80;99.90;;;;;;5105286;28;20115;-81
2022/10/13 07:04:48;;;;;;;16.17;9.48;;;13.90;99.90;;;;;;5124599;27;20034;-81
2022/10/13 07:07:15;;;;;;;18.30;8.82;;;14.00;99.90;;;;;;5116270;28;20391;-82
2022/10/13 07:09:41;;;;;;;22.70;10.27;;;14.00;99.90;;;;;;5113491;28;20024;-80
2022/10/13 07:12:07;;;;;;;15.25;9.25;;;14.10;99.90;;;;;;5106226;28;20036;-81
2022/10/13 07:14:33;;;;;;;26.45;9.38;;;14.20;99.90;;;;;;5098116;28;20495;-81
2022/10/13 07:16:59;;;;;;;24.42;9.45;;;14.20;99.90;;;;;;5113165;28;20831;-82
2022/10/13 07:19:25;;;;;;;16.52;10.18;;;14.20;99.90;;;;;;5098416;28;20586;-81
2022/10/13 07:21:51;;;;;;;22.35;8.70;;;14.30;99.90;;;;;;5107149;28;20023;-82
2022/10/13 07:24:17;;;;;;;17.45;9.30;;;14.30;99.90;;;;;;5115574;27;20107;-82
2022/10/13 07:26:43;;;;;;;22.00;10.38;;;14.40;99.90;;;;;;5100514;28;20094;-82
2022/10/13 07:29:09;;;;;;;24.20;10.55;;;14.40;99.90;;;;;;5103563;28;20016;-81
2022/10/13 07:31:35;;;;;;;20.95;9.90;;;14.50;99.90;;;;;;5115974;28;20027;-82
2022/10/13 07:34:03;;;;;;;18.58;10.07;;;14.60;99.90;;;;;;5117031;28;20428;-77
2022/10/13 07:36:30;;;;;;;26.38;11.40;;;14.60;99.90;;;;;;5114047;28;20452;-79
2022/10/13 07:38:57;;;;;;;22.55;10.57;;;14.70;99.90;;;;;;5112423;28;20407;-81
2022/10/13 07:41:23;;;;;;;19.42;10.02;;;14.90;99.90;;;;;;5111412;28;20372;-84
2022/10/13 07:43:54;;;;;;;19.15;9.93;;;15.00;99.90;;;;;;5096451;28;20020;-79
2022/10/13 07:46:20;;;;;;;;;;;15.30;99.90;;;;;;5113953;28;20035;-80
2022/10/13 07:48:46;;;;;;;26.50;9.32;;;15.50;99.90;;;;;;5104917;28;19908;-80
2022/10/13 07:51:13;;;;;;;21.13;8.93;;;15.60;99.90;;;;;;5097690;28;20142;-76
2022/10/13 07:53:40;;;;;;;20.17;8.93;;;15.70;99.90;;;;;;5123717;27;20027;-80
2022/10/13 07:56:10;;;;;;;15.63;9.75;;;15.70;99.90;;;;;;5114412;28;20024;-80
2022/10/13 07:58:37;;;;;;;16.65;8.85;;;15.70;99.90;;;;;;5113938;28;20038;-80
2022/10/13 08:01:04;;;;;;;22.38;9.32;;;15.80;99.90;;;;;;5112423;28;20035;-79
2022/10/13 08:03:31;;;;;;;17.13;8.93;;;15.90;99.90;;;;;;5101941;28;20043;-79
2022/10/13 08:06:02;;;;;;;20.92;8.48;;;15.90;99.90;;;;;;5095481;28;20019;-81
2022/10/13 08:08:28;;;;;;;19.10;9.25;;;15.90;99.90;;;;;;5118444;27;20073;-81
2022/10/13 08:10:59;;;;;;;20.70;9.38;;;15.90;99.90;;;;;;5097062;28;20036;-80
2022/10/13 08:13:25;;;;;;;20.52;9.68;;;15.90;99.90;;;;;;5096701;28;20377;-80
2022/10/13 08:15:51;;;;;;;15.40;9.25;;;16.00;99.90;;;;;;5097093;28;20022;-80
2022/10/13 08:18:17;;;;;;;17.67;9.10;;;16.00;99.90;;;;;;5097280;28;20035;-80
2022/10/13 08:20:44;;;;;;;21.95;9.65;;;16.10;99.90;;;;;;5114166;28;20027;-80
2022/10/13 08:23:13;;;;;;;25.98;9.77;;;15.90;99.90;;;;;;5113162;28;20483;-80
2022/10/13 08:25:40;;;;;;;30.02;9.75;;;16.10;99.90;;;;;;5109896;28;20079;-81
2022/10/13 08:28:19;;;;;;;22.98;9.93;;;16.00;99.90;;;;;;5095808;28;20032;-79
2022/10/13 08:30:45;;;;;;;12.50;8.93;;;16.10;99.90;;;;;;5084105;28;20027;-79
2022/10/13 08:33:11;;;;;;;18.77;9.95;;;16.20;99.90;;;;;;5113010;28;20035;-81
2022/10/13 08:35:37;;;;;;;19.77;9.55;;;16.20;99.90;;;;;;5112790;28;20020;-79
2022/10/13 08:38:03;;;;;;;15.52;9.93;;;16.30;99.90;;;;;;5122079;27;20020;-79
2022/10/13 08:40:29;;;;;;;22.30;9.82;;;16.30;99.90;;;;;;5106236;28;20024;-81
2022/10/13 08:42:56;;;;;;;22.65;10.18;;;16.30;99.90;;;;;;5109540;28;20031;-80
2022/10/13 08:45:25;;;;;;;17.75;10.18;;;16.20;99.90;;;;;;5097421;28;20024;-81
2022/10/13 08:47:58;;;;;;;21.92;10.18;;;16.30;99.90;;;;;;5096454;28;20052;-81
2022/10/13 08:50:28;;;;;;;25.48;9.95;;;16.50;99.90;;;;;;5099955;28;20023;-79
2022/10/13 08:53:06;;;;;;;24.77;10.13;;;16.70;99.90;;;;;;5100591;28;20016;-79
2022/10/13 08:55:39;;;;;;;23.88;10.15;;;16.90;99.90;;;;;;5104609;28;20020;-79
2022/10/13 08:58:31;;;;;;;20.83;10.18;;;17.10;99.90;;;;;;5096719;28;20028;-79
2022/10/13 09:01:15;;;;;;;16.15;9.57;;;17.30;99.90;;;;;;5089715;28;20034;-79
2022/10/13 09:04:10;;;;;;;21.08;9.07;;;17.50;99.90;;;;;;5100867;28;20028;-79
2022/10/13 09:06:53;;;;;;;31.55;9.90;;;17.70;99.90;;;;;;5096535;28;20024;-79
2022/10/13 09:09:18;;;;;;;20.75;8.63;;;17.60;99.90;;;;;;5098285;28;20488;-81
2022/10/13 09:11:47;;;;;;;19.90;8.80;;;17.70;99.90;;;;;;5096608;28;20070;-79
2022/10/13 09:14:31;;;;;;;18.75;7.90;;;17.80;99.90;;;;;;5096457;28;20012;-79
2022/10/13 09:17:19;;;;;;;20.27;8.85;;;18.10;99.90;;;;;;5112031;28;20024;-78
2022/10/13 09:19:59;;;;;;;19.25;9.02;;;18.50;99.90;;;;;;5086700;28;20087;-79
2022/10/13 09:22:36;;;;;;;21.90;8.52;;;18.70;99.90;;;;;;5100454;28;20599;-78
2022/10/13 09:25:17;;;;;;;18.45;9.40;;;18.80;99.90;;;;;;5100636;28;20024;-79
2022/10/13 09:27:50;;;;;;;22.30;7.80;;;18.90;99.90;;;;;;5100510;28;20551;-79
2022/10/13 09:30:38;;;;;;;23.70;8.77;;;18.80;99.90;;;;;;5100291;28;20028;-79
2022/10/13 09:33:13;;;;;;;38.08;11.95;;;18.80;99.90;;;;;;5115437;28;20021;-78
2022/10/13 09:35:42;;;;;;;19.52;7.38;;;18.80;99.90;;;;;;5100050;28;20020;-78
2022/10/13 09:38:18;;;;;;;17.02;7.78;;;18.90;99.90;;;;;;5107280;28;20031;-78
2022/10/13 09:40:56;;;;;;;19.70;7.35;;;18.80;99.90;;;;;;5121846;27;20048;-78
2022/10/13 09:43:25;;;;;;;29.38;9.27;;;18.80;99.90;;;;;;5133050;27;20060;-78
2022/10/13 09:45:52;;;;;;;17.08;8.13;;;18.80;99.90;;;;;;5104148;28;20091;-79
2022/10/13 09:48:22;;;;;;;14.02;7.50;;;18.80;99.90;;;;;;5101056;27;20111;-79
2022/10/13 09:50:49;;;;;;;;;;;19.00;99.90;;;;;;5099686;28;20027;-78
2022/10/13 09:53:21;;;;;;;20.70;7.07;;;19.10;99.90;;;;;;5115716;28;19904;-79
2022/10/13 09:55:48;;;;;;;10.98;6.32;;;19.10;99.90;;;;;;5111178;28;20035;-79
2022/10/13 09:58:29;;;;;;;12.98;5.80;;;19.20;99.90;;;;;;5114464;28;20023;-79
2022/10/13 10:00:56;;;;;;;13.05;6.20;;;19.20;99.90;;;;;;5117666;28;20464;-78
2022/10/13 10:03:34;;;;;;;16.75;7.65;;;19.40;99.90;;;;;;5116243;28;20028;-78
2022/10/13 10:06:01;;;;;;;15.57;6.50;;;19.60;99.90;;;;;;5123055;27;20027;-78
2022/10/13 10:08:49;;;;;;;21.15;6.80;;;19.80;99.90;;;;;;5096913;28;20020;-79
2022/10/13 10:11:39;;;;;;;18.48;6.47;;;20.00;99.90;;;;;;5110495;28;20055;-78
2022/10/13 10:14:23;;;;;;;16.50;7.20;;;20.00;99.90;;;;;;5102556;28;20035;-79
2022/10/13 10:17:08;;;;;;;14.38;6.07;;;20.10;99.90;;;;;;5095192;28;20411;-78
2022/10/13 10:19:55;;;;;;;18.35;6.65;;;20.00;99.90;;;;;;5099675;28;20028;-78
2022/10/13 10:22:47;;;;;;;18.48;7.18;;;19.90;99.90;;;;;;5099538;28;20045;-78
2022/10/13 10:25:44;;;;;;;18.77;6.57;;;19.90;99.90;;;;;;5112033;28;20034;-78
2022/10/13 10:28:28;;;;;;;19.35;6.32;;;20.00;99.90;;;;;;5091872;28;20024;-78
2022/10/13 10:31:05;;;;;;;16.75;5.45;;;20.00;99.90;;;;;;5118938;27;20041;-79
2022/10/13 10:34:06;;;;;;;21.10;6.47;;;20.10;99.90;;;;;;5086796;28;20487;-78
2022/10/13 10:36:51;;;;;;;17.25;5.45;;;20.20;99.90;;;;;;5094117;28;20028;-77
2022/10/13 10:39:41;;;;;;;16.23;6.20;;;20.50;99.90;;;;;;5116547;28;20031;-78
2022/10/13 10:42:48;;;;;;;12.93;5.97;;;20.80;99.90;;;;;;5086883;28;20028;-79
2022/10/13 10:45:21;;;;;;;16.67;6.80;;;20.80;99.90;;;;;;5098708;28;20032;-78
2022/10/13 10:47:51;;;;;;;13.32;6.35;;;20.90;99.90;;;;;;5129464;27;20051;-79
2022/10/13 10:50:18;;;;;;;17.10;5.78;;;21.00;99.90;;;;;;5126740;27;20024;-78
2022/10/13 10:53:02;;;;;;;17.55;6.35;;;20.90;99.90;;;;;;5112719;28;20026;-78
2022/10/13 10:55:49;;;;;;;13.57;5.57;;;20.80;99.90;;;;;;5114905;28;20024;-78
2022/10/13 10:58:15;;;;;;;13.63;5.90;;;21.00;99.90;;;;;;5098958;28;20028;-78
2022/10/13 11:00:51;;;;;;;18.92;6.18;;;21.10;99.90;;;;;;5110102;28;20038;-79
2022/10/13 11:03:26;;;;;;;10.15;5.10;;;21.10;99.90;;;;;;5105845;28;20028;-79
2022/10/13 11:06:19;;;;;;;12.35;4.05;;;21.10;99.90;;;;;;5100822;28;20020;-79
2022/10/13 11:08:47;;;;;;;8.82;4.32;;;21.20;99.90;;;;;;5098309;28;20028;-79
2022/10/13 11:11:18;;;;;;;12.18;4.75;;;21.30;99.90;;;;;;5116009;28;20039;-79
2022/10/13 11:14:01;;;;;;;10.68;4.65;;;21.30;99.90;;;;;;5109367;28;20020;-78
2022/10/13 11:16:38;;;;;;;12.52;4.40;;;21.00;99.90;;;;;;5105955;28;20023;-78
2022/10/13 11:19:07;;;;;;;9.90;4.35;;;20.80;99.90;;;;;;5099101;28;20027;-79
2022/10/13 11:21:51;;;;;;;11.68;3.63;;;20.60;99.90;;;;;;5120842;27;20028;-79
2022/10/13 11:24:32;;;;;;;10.63;4.95;;;20.40;99.90;;;;;;5098861;28;20137;-78
2022/10/13 11:27:24;;;;;;;11.40;5.63;;;20.40;99.90;;;;;;5101246;28;20046;-78
2022/10/13 11:29:53;;;;;;;14.35;4.25;;;20.30;99.90;;;;;;5098393;28;20035;-78
2022/10/13 11:32:25;;;;;;;10.05;5.28;;;20.30;99.90;;;;;;5098037;28;20488;-78
2022/10/13 11:35:09;;;;;;;11.05;5.60;;;20.30;99.90;;;;;;5117134;27;20028;-79
2022/10/13 11:37:50;;;;;;;17.83;5.90;;;20.40;99.90;;;;;;5110620;28;20024;-79
2022/10/13 11:40:22;;;;;;;;;;;20.20;99.90;;;;;;5103888;28;20461;-79
2022/10/13 11:43:00;;;;;;;12.32;5.00;;;20.20;99.90;;;;;;5097477;28;19904;-79
2022/10/13 11:45:38;;;;;;;14.02;5.50;;;20.30;99.90;;;;;;5098809;28;20054;-78
2022/10/13 11:48:16;;;;;;;14.13;5.10;;;20.30;99.90;;;;;;5100875;28;20113;-79
2022/10/13 11:51:04;;;;;;;16.15;6.93;;;20.50;99.90;;;;;;5100311;28;20021;-79
2022/10/13 11:53:48;;;;;;;15.07;5.57;;;20.70;99.90;;;;;;5095463;28;20453;-79
2022/10/13 11:56:33;;;;;;;11.95;6.22;;;20.90;99.90;;;;;;5116343;27;20028;-79
2022/10/13 11:58:59;;;;;;;10.68;5.47;;;20.80;99.90;;;;;;5097564;28;20070;-79
2022/10/13 12:01:24;;;;;;;13.20;5.25;;;20.90;99.90;;;;;;5097676;28;20024;-78
2022/10/13 12:03:50;;;;;;;17.55;5.63;;;21.20;99.90;;;;;;5095859;28;20115;-78
2022/10/13 12:06:32;;;;;;;15.43;6.07;;;21.40;99.90;;;;;;5112422;28;20095;-78
2022/10/13 12:09:01;;;;;;;10.13;5.00;;;21.20;99.90;;;;;;5109720;27;20380;-79
2022/10/13 12:11:29;;;;;;;18.58;6.50;;;21.30;99.90;;;;;;5097492;28;20089;-79
2022/10/13 12:13:55;;;;;;;14.40;5.43;;;21.40;99.90;;;;;;5101284;28;20484;-79
2022/10/13 12:16:22;;;;;;;10.43;4.88;;;21.50;99.90;;;;;;5101810;28;20035;-79
2022/10/13 12:18:48;;;;;;;20.83;4.90;;;21.40;99.90;;;;;;5100722;28;20049;-78
2022/10/13 12:21:21;;;;;;;11.07;4.03;;;21.50;99.90;;;;;;5101399;28;20069;-79
2022/10/13 12:23:49;;;;;;;9.10;5.03;;;21.60;99.90;;;;;;5100505;28;20031;-78
2022/10/13 12:26:24;;;;;;;8.52;3.95;;;21.70;99.90;;;;;;5112538;28;20019;-79
2022/10/13 12:28:56;;;;;;;14.50;4.70;;;22.00;99.90;;;;;;5096579;28;20020;-79
2022/10/13 12:31:39;;;;;;;13.13;5.05;;;22.20;99.90;;;;;;5096750;28;20046;-80
2022/10/13 12:34:24;;;;;;;17.52;4.38;;;22.50;99.90;;;;;;5096984;28;20027;-78
2022/10/13 12:37:05;;;;;;;12.80;5.22;;;22.70;99.90;;;;;;5093735;28;20028;-78
2022/10/13 12:39:33;;;;;;;7.90;4.63;;;23.00;99.90;;;;;;5112921;28;20020;-77
2022/10/13 12:42:01;;;;;;;10.98;4.88;;;22.80;99.90;;;;;;5102769;28;20030;-80
2022/10/13 12:44:29;;;;;;;13.13;4.78;;;22.60;99.90;;;;;;5103072;28;20019;-78
2022/10/13 12:47:00;;;;;;;15.15;4.95;;;22.40;99.90;;;;;;5101344;28;20039;-78
2022/10/13 12:49:28;;;;;;;11.18;4.88;;;22.20;99.90;;;;;;5096981;28;20108;-78
2022/10/13 12:52:08;;;;;;;12.38;4.68;;;22.20;99.90;;;;;;5097091;28;20146;-78
2022/10/13 12:54:38;;;;;;;;;;;22.10;99.90;;;;;;5098321;28;20023;-78
2022/10/13 12:57:17;;;;;;;14.63;5.20;;;22.10;99.90;;;;;;5101296;28;19904;-79
2022/10/13 12:59:43;;;;;;;14.30;4.70;;;22.10;99.90;;;;;;5100922;28;20472;-78